Terminal Aerodrome Forecast
Issued by NWS

Home | Current Version | Previous Version | Graphics & Text | Print | Product List | Glossary On
Versions: 1 2 3 4 5 6 7 8 9 10 11 12 13 14 15 16 17 18 19 20 21 22 23 24 25 26 27 28 29 30 31 32 33 34 35 36 37 38 39 40 41 42
000
FTUS43 KGRB 241416 AAB
TAFRHI
TAF AMD
KRHI 241416Z 2414/2512 22007KT 6SM -SHRADZ BR OVC007
      TEMPO 2414/2416 2SM -SHRA BKN006
     FM241700 25008KT P6SM BKN014
     FM242000 26008KT P6SM BKN030
     FM242100 26008KT P6SM BKN050
     FM242200 27004KT P6SM SCT200=

USA.gov is the U.S. government's official web portal to all federal, state and local government web resources and services.